sensor_id;sensor_type;location;lat;lon;timestamp;temperature;humidity
71128;SHT30;59249;59.736;30.568;2023-03-31T00:00:03;0.20;87.83
71128;SHT30;59249;59.736;30.568;2023-03-31T00:02:39;0.22;87.74
71128;SHT30;59249;59.736;30.568;2023-03-31T00:05:09;0.25;87.47
71128;SHT30;59249;59.736;30.568;2023-03-31T00:07:38;0.20;87.08
71128;SHT30;59249;59.736;30.568;2023-03-31T00:10:07;0.20;87.47
71128;SHT30;59249;59.736;30.568;2023-03-31T00:12:42;0.18;87.55
71128;SHT30;59249;59.736;30.568;2023-03-31T00:15:11;0.18;87.43
71128;SHT30;59249;59.736;30.568;2023-03-31T00:17:41;0.13;87.50
71128;SHT30;59249;59.736;30.568;2023-03-31T00:20:11;0.13;87.45
71128;SHT30;59249;59.736;30.568;2023-03-31T00:22:41;0.09;87.19
71128;SHT30;59249;59.736;30.568;2023-03-31T00:25:14;0.14;87.65
71128;SHT30;59249;59.736;30.568;2023-03-31T00:27:44;0.31;87.66
71128;SHT30;59249;59.736;30.568;2023-03-31T00:30:13;0.28;87.59
71128;SHT30;59249;59.736;30.568;2023-03-31T00:32:44;0.13;87.25
71128;SHT30;59249;59.736;30.568;2023-03-31T00:35:13;0.16;87.69
71128;SHT30;59249;59.736;30.568;2023-03-31T00:37:42;0.22;87.74
71128;SHT30;59249;59.736;30.568;2023-03-31T00:40:12;0.27;87.39
71128;SHT30;59249;59.736;30.568;2023-03-31T00:42:41;0.13;87.57
71128;SHT30;59249;59.736;30.568;2023-03-31T00:45:27;0.22;86.79
71128;SHT30;59249;59.736;30.568;2023-03-31T00:48:04;0.13;87.42
71128;SHT30;59249;59.736;30.568;2023-03-31T00:50:42;0.25;87.88
71128;SHT30;59249;59.736;30.568;2023-03-31T00:53:19;0.21;87.71
71128;SHT30;59249;59.736;30.568;2023-03-31T00:55:53;0.11;87.42
71128;SHT30;59249;59.736;30.568;2023-03-31T00:58:25;0.10;87.27
71128;SHT30;59249;59.736;30.568;2023-03-31T01:00:57;0.11;87.82
71128;SHT30;59249;59.736;30.568;2023-03-31T01:03:28;0.08;88.08
71128;SHT30;59249;59.736;30.568;2023-03-31T01:06:02;0.11;87.60
71128;SHT30;59249;59.736;30.568;2023-03-31T01:08:35;0.12;87.50
71128;SHT30;59249;59.736;30.568;2023-03-31T01:11:06;0.06;87.46
71128;SHT30;59249;59.736;30.568;2023-03-31T01:13:40;0.13;87.62
71128;SHT30;59249;59.736;30.568;2023-03-31T01:16:09;0.09;87.44
71128;SHT30;59249;59.736;30.568;2023-03-31T01:18:39;0.09;87.43
71128;SHT30;59249;59.736;30.568;2023-03-31T01:25:07;0.13;87.71
71128;SHT30;59249;59.736;30.568;2023-03-31T01:28:13;0.07;87.73
71128;SHT30;59249;59.736;30.568;2023-03-31T01:35:08;0.07;88.08
71128;SHT30;59249;59.736;30.568;2023-03-31T01:41:27;0.15;88.16
71128;SHT30;59249;59.736;30.568;2023-03-31T01:44:07;0.09;87.82
71128;SHT30;59249;59.736;30.568;2023-03-31T01:46:44;0.19;87.65
71128;SHT30;59249;59.736;30.568;2023-03-31T01:49:22;0.17;87.93
71128;SHT30;59249;59.736;30.568;2023-03-31T01:52:00;0.14;87.87
71128;SHT30;59249;59.736;30.568;2023-03-31T01:54:38;0.09;87.90
71128;SHT30;59249;59.736;30.568;2023-03-31T01:57:17;0.15;87.70
71128;SHT30;59249;59.736;30.568;2023-03-31T01:59:57;0.25;87.62
71128;SHT30;59249;59.736;30.568;2023-03-31T02:02:45;0.13;87.68
71128;SHT30;59249;59.736;30.568;2023-03-31T02:05:21;0.12;87.38
71128;SHT30;59249;59.736;30.568;2023-03-31T02:07:55;0.10;87.23
71128;SHT30;59249;59.736;30.568;2023-03-31T02:10:30;0.08;87.57
71128;SHT30;59249;59.736;30.568;2023-03-31T02:13:05;0.09;87.62
71128;SHT30;59249;59.736;30.568;2023-03-31T02:15:38;0.09;87.76
71128;SHT30;59249;59.736;30.568;2023-03-31T02:18:12;0.13;88.03
71128;SHT30;59249;59.736;30.568;2023-03-31T02:20:47;0.26;87.53
71128;SHT30;59249;59.736;30.568;2023-03-31T02:23:23;0.09;87.72
71128;SHT30;59249;59.736;30.568;2023-03-31T02:26:01;0.02;87.86
71128;SHT30;59249;59.736;30.568;2023-03-31T02:28:33;0.01;87.54
71128;SHT30;59249;59.736;30.568;2023-03-31T02:31:20;0.16;87.48
71128;SHT30;59249;59.736;30.568;2023-03-31T02:33:52;0.06;88.04
71128;SHT30;59249;59.736;30.568;2023-03-31T02:36:21;0.10;87.91
71128;SHT30;59249;59.736;30.568;2023-03-31T02:38:56;0.12;88.22
71128;SHT30;59249;59.736;30.568;2023-03-31T02:41:27;0.15;87.98
71128;SHT30;59249;59.736;30.568;2023-03-31T02:43:57;0.13;87.91
71128;SHT30;59249;59.736;30.568;2023-03-31T02:46:27;0.26;88.12
71128;SHT30;59249;59.736;30.568;2023-03-31T02:49:03;0.27;88.17
71128;SHT30;59249;59.736;30.568;2023-03-31T02:52:04;0.25;87.87
71128;SHT30;59249;59.736;30.568;2023-03-31T02:55:15;0.10;87.51
71128;SHT30;59249;59.736;30.568;2023-03-31T02:58:08;0.17;87.43
71128;SHT30;59249;59.736;30.568;2023-03-31T03:01:00;0.13;87.98
71128;SHT30;59249;59.736;30.568;2023-03-31T03:03:43;0.23;87.88
71128;SHT30;59249;59.736;30.568;2023-03-31T03:06:31;0.23;87.70
71128;SHT30;59249;59.736;30.568;2023-03-31T03:09:34;0.22;88.16
71128;SHT30;59249;59.736;30.568;2023-03-31T03:12:16;0.08;88.00
71128;SHT30;59249;59.736;30.568;2023-03-31T03:14:54;0.10;87.77
71128;SHT30;59249;59.736;30.568;2023-03-31T03:17:31;0.16;87.92
71128;SHT30;59249;59.736;30.568;2023-03-31T03:20:02;0.14;88.20
71128;SHT30;59249;59.736;30.568;2023-03-31T03:22:35;0.22;87.65
71128;SHT30;59249;59.736;30.568;2023-03-31T03:25:05;0.23;88.28
71128;SHT30;59249;59.736;30.568;2023-03-31T03:27:35;0.25;88.06
71128;SHT30;59249;59.736;30.568;2023-03-31T03:30:08;0.26;87.56
71128;SHT30;59249;59.736;30.568;2023-03-31T03:32:38;0.15;87.60
71128;SHT30;59249;59.736;30.568;2023-03-31T03:35:08;0.20;87.76
71128;SHT30;59249;59.736;30.568;2023-03-31T03:37:37;0.28;87.93
71128;SHT30;59249;59.736;30.568;2023-03-31T03:40:08;0.14;87.84
71128;SHT30;59249;59.736;30.568;2023-03-31T03:42:36;0.23;87.87
71128;SHT30;59249;59.736;30.568;2023-03-31T03:45:06;0.26;88.24
71128;SHT30;59249;59.736;30.568;2023-03-31T03:47:35;0.32;87.64
71128;SHT30;59249;59.736;30.568;2023-03-31T03:50:07;0.31;87.94
71128;SHT30;59249;59.736;30.568;2023-03-31T03:52:36;0.37;88.22
71128;SHT30;59249;59.736;30.568;2023-03-31T03:55:06;0.38;88.18
71128;SHT30;59249;59.736;30.568;2023-03-31T03:57:35;0.41;88.38
71128;SHT30;59249;59.736;30.568;2023-03-31T04:00:05;0.38;88.04
71128;SHT30;59249;59.736;30.568;2023-03-31T04:02:37;0.40;87.87
71128;SHT30;59249;59.736;30.568;2023-03-31T04:05:08;0.45;88.10
71128;SHT30;59249;59.736;30.568;2023-03-31T04:07:37;0.34;87.63
71128;SHT30;59249;59.736;30.568;2023-03-31T04:10:08;0.44;88.08
71128;SHT30;59249;59.736;30.568;2023-03-31T04:12:36;0.50;87.65
71128;SHT30;59249;59.736;30.568;2023-03-31T04:15:07;0.52;87.57
71128;SHT30;59249;59.736;30.568;2023-03-31T04:17:35;0.55;88.12
71128;SHT30;59249;59.736;30.568;2023-03-31T04:20:09;0.64;87.48
71128;SHT30;59249;59.736;30.568;2023-03-31T04:22:38;0.56;87.13
71128;SHT30;59249;59.736;30.568;2023-03-31T04:25:10;0.48;87.19
71128;SHT30;59249;59.736;30.568;2023-03-31T04:27:44;0.60;87.58
71128;SHT30;59249;59.736;30.568;2023-03-31T04:30:17;0.65;87.64
71128;SHT30;59249;59.736;30.568;2023-03-31T04:32:51;0.69;87.77
71128;SHT30;59249;59.736;30.568;2023-03-31T04:35:25;0.68;87.49
71128;SHT30;59249;59.736;30.568;2023-03-31T04:38:04;0.79;87.93
71128;SHT30;59249;59.736;30.568;2023-03-31T04:40:35;0.72;87.31
71128;SHT30;59249;59.736;30.568;2023-03-31T04:43:04;0.65;86.80
71128;SHT30;59249;59.736;30.568;2023-03-31T04:45:32;0.67;86.05
71128;SHT30;59249;59.736;30.568;2023-03-31T04:48:01;0.63;86.67
71128;SHT30;59249;59.736;30.568;2023-03-31T04:50:31;0.65;87.31
71128;SHT30;59249;59.736;30.568;2023-03-31T04:53:01;0.69;87.58
71128;SHT30;59249;59.736;30.568;2023-03-31T04:55:30;0.90;87.26
71128;SHT30;59249;59.736;30.568;2023-03-31T04:57:59;0.88;87.08
71128;SHT30;59249;59.736;30.568;2023-03-31T05:00:27;0.90;86.72
71128;SHT30;59249;59.736;30.568;2023-03-31T05:02:58;0.96;87.19
71128;SHT30;59249;59.736;30.568;2023-03-31T05:05:27;0.88;87.28
71128;SHT30;59249;59.736;30.568;2023-03-31T05:07:58;0.97;86.91
71128;SHT30;59249;59.736;30.568;2023-03-31T05:10:27;1.09;86.50
71128;SHT30;59249;59.736;30.568;2023-03-31T05:12:56;1.08;86.74
71128;SHT30;59249;59.736;30.568;2023-03-31T05:15:25;1.08;86.79
71128;SHT30;59249;59.736;30.568;2023-03-31T05:17:54;1.16;85.94
71128;SHT30;59249;59.736;30.568;2023-03-31T05:20:25;1.15;87.44
71128;SHT30;59249;59.736;30.568;2023-03-31T05:22:53;1.25;87.32
71128;SHT30;59249;59.736;30.568;2023-03-31T05:25:23;1.29;86.88
71128;SHT30;59249;59.736;30.568;2023-03-31T05:27:55;1.34;86.12
71128;SHT30;59249;59.736;30.568;2023-03-31T05:30:24;1.48;86.44
71128;SHT30;59249;59.736;30.568;2023-03-31T05:32:53;1.51;85.76
71128;SHT30;59249;59.736;30.568;2023-03-31T05:35:22;1.55;86.47
71128;SHT30;59249;59.736;30.568;2023-03-31T05:37:51;1.73;86.59
71128;SHT30;59249;59.736;30.568;2023-03-31T05:40:20;1.71;86.33
71128;SHT30;59249;59.736;30.568;2023-03-31T05:42:50;1.78;85.92
71128;SHT30;59249;59.736;30.568;2023-03-31T05:45:19;1.85;86.04
71128;SHT30;59249;59.736;30.568;2023-03-31T05:47:47;2.00;86.17
71128;SHT30;59249;59.736;30.568;2023-03-31T05:50:17;2.02;85.87
71128;SHT30;59249;59.736;30.568;2023-03-31T05:52:46;2.11;85.79
71128;SHT30;59249;59.736;30.568;2023-03-31T05:55:14;2.11;85.53
71128;SHT30;59249;59.736;30.568;2023-03-31T05:57:45;2.03;84.93
71128;SHT30;59249;59.736;30.568;2023-03-31T06:00:16;2.16;85.13
71128;SHT30;59249;59.736;30.568;2023-03-31T06:02:45;2.27;85.13
71128;SHT30;59249;59.736;30.568;2023-03-31T06:05:14;2.37;84.61
71128;SHT30;59249;59.736;30.568;2023-03-31T06:07:46;2.26;84.52
71128;SHT30;59249;59.736;30.568;2023-03-31T06:10:15;2.26;84.56
71128;SHT30;59249;59.736;30.568;2023-03-31T06:12:44;2.34;85.07
71128;SHT30;59249;59.736;30.568;2023-03-31T06:15:17;2.37;84.58
71128;SHT30;59249;59.736;30.568;2023-03-31T06:17:50;2.46;84.23
71128;SHT30;59249;59.736;30.568;2023-03-31T06:20:19;2.45;84.31
71128;SHT30;59249;59.736;30.568;2023-03-31T06:22:55;2.39;84.42
71128;SHT30;59249;59.736;30.568;2023-03-31T06:25:23;2.54;84.62
71128;SHT30;59249;59.736;30.568;2023-03-31T06:27:52;2.50;84.66
71128;SHT30;59249;59.736;30.568;2023-03-31T06:30:22;2.65;84.62
71128;SHT30;59249;59.736;30.568;2023-03-31T06:32:51;2.60;84.39
71128;SHT30;59249;59.736;30.568;2023-03-31T06:35:20;2.94;83.89
71128;SHT30;59249;59.736;30.568;2023-03-31T06:37:49;2.94;83.83
71128;SHT30;59249;59.736;30.568;2023-03-31T06:40:19;3.19;83.79
71128;SHT30;59249;59.736;30.568;2023-03-31T06:42:50;3.14;83.51
71128;SHT30;59249;59.736;30.568;2023-03-31T06:45:19;3.27;83.06
71128;SHT30;59249;59.736;30.568;2023-03-31T06:47:49;3.22;82.58
71128;SHT30;59249;59.736;30.568;2023-03-31T06:50:18;3.09;82.41
71128;SHT30;59249;59.736;30.568;2023-03-31T06:52:47;3.08;83.14
71128;SHT30;59249;59.736;30.568;2023-03-31T06:55:19;3.22;84.34
71128;SHT30;59249;59.736;30.568;2023-03-31T06:57:48;3.20;84.17
71128;SHT30;59249;59.736;30.568;2023-03-31T07:00:17;3.45;82.95
71128;SHT30;59249;59.736;30.568;2023-03-31T07:02:50;3.42;83.40
71128;SHT30;59249;59.736;30.568;2023-03-31T07:05:19;3.35;83.50
71128;SHT30;59249;59.736;30.568;2023-03-31T07:07:53;3.47;83.85
71128;SHT30;59249;59.736;30.568;2023-03-31T07:10:24;3.48;83.01
71128;SHT30;59249;59.736;30.568;2023-03-31T07:12:53;3.55;83.63
71128;SHT30;59249;59.736;30.568;2023-03-31T07:15:23;3.69;83.36
71128;SHT30;59249;59.736;30.568;2023-03-31T07:17:55;3.83;83.39
71128;SHT30;59249;59.736;30.568;2023-03-31T07:20:29;3.80;83.26
71128;SHT30;59249;59.736;30.568;2023-03-31T07:22:59;3.86;82.64
71128;SHT30;59249;59.736;30.568;2023-03-31T07:25:34;3.84;83.36
71128;SHT30;59249;59.736;30.568;2023-03-31T07:28:05;3.93;83.46
71128;SHT30;59249;59.736;30.568;2023-03-31T07:30:34;3.86;83.67
71128;SHT30;59249;59.736;30.568;2023-03-31T07:33:05;3.89;82.85
71128;SHT30;59249;59.736;30.568;2023-03-31T07:35:37;3.89;82.01
71128;SHT30;59249;59.736;30.568;2023-03-31T07:38:07;3.86;82.52
71128;SHT30;59249;59.736;30.568;2023-03-31T07:40:37;3.84;82.47
71128;SHT30;59249;59.736;30.568;2023-03-31T07:43:07;3.85;83.01
71128;SHT30;59249;59.736;30.568;2023-03-31T07:45:41;3.91;82.40
71128;SHT30;59249;59.736;30.568;2023-03-31T07:48:14;4.12;81.71
71128;SHT30;59249;59.736;30.568;2023-03-31T07:50:49;4.13;82.43
71128;SHT30;59249;59.736;30.568;2023-03-31T07:53:26;4.15;82.08
71128;SHT30;59249;59.736;30.568;2023-03-31T07:55:55;4.06;81.06
71128;SHT30;59249;59.736;30.568;2023-03-31T07:58:24;3.91;81.41
71128;SHT30;59249;59.736;30.568;2023-03-31T08:00:54;4.02;82.66
71128;SHT30;59249;59.736;30.568;2023-03-31T08:03:28;4.02;83.36
71128;SHT30;59249;59.736;30.568;2023-03-31T08:05:58;3.99;83.00
71128;SHT30;59249;59.736;30.568;2023-03-31T08:08:27;4.00;83.58
71128;SHT30;59249;59.736;30.568;2023-03-31T08:10:56;4.14;83.28
71128;SHT30;59249;59.736;30.568;2023-03-31T08:13:25;4.19;82.81
71128;SHT30;59249;59.736;30.568;2023-03-31T08:15:54;4.25;81.88
71128;SHT30;59249;59.736;30.568;2023-03-31T08:18:25;4.16;81.28
71128;SHT30;59249;59.736;30.568;2023-03-31T08:20:55;4.28;81.74
71128;SHT30;59249;59.736;30.568;2023-03-31T08:23:24;4.49;81.12
71128;SHT30;59249;59.736;30.568;2023-03-31T08:25:52;4.30;80.74
71128;SHT30;59249;59.736;30.568;2023-03-31T08:28:21;4.44;79.75
71128;SHT30;59249;59.736;30.568;2023-03-31T08:30:50;4.35;79.66
71128;SHT30;59249;59.736;30.568;2023-03-31T08:33:18;4.22;80.50
71128;SHT30;59249;59.736;30.568;2023-03-31T08:35:47;4.08;80.54
71128;SHT30;59249;59.736;30.568;2023-03-31T08:38:18;4.02;80.46
71128;SHT30;59249;59.736;30.568;2023-03-31T08:40:47;4.06;81.13
71128;SHT30;59249;59.736;30.568;2023-03-31T08:43:22;3.90;82.41
71128;SHT30;59249;59.736;30.568;2023-03-31T08:45:55;3.86;82.74
71128;SHT30;59249;59.736;30.568;2023-03-31T08:48:28;4.14;83.14
71128;SHT30;59249;59.736;30.568;2023-03-31T08:51:03;4.43;82.26
71128;SHT30;59249;59.736;30.568;2023-03-31T08:53:42;4.83;83.28
71128;SHT30;59249;59.736;30.568;2023-03-31T08:56:16;5.04;81.23
71128;SHT30;59249;59.736;30.568;2023-03-31T08:58:49;5.31;81.87
71128;SHT30;59249;59.736;30.568;2023-03-31T09:01:28;5.47;81.36
71128;SHT30;59249;59.736;30.568;2023-03-31T09:04:42;5.79;77.64
71128;SHT30;59249;59.736;30.568;2023-03-31T09:07:23;5.82;78.63
71128;SHT30;59249;59.736;30.568;2023-03-31T09:10:05;5.93;76.59
71128;SHT30;59249;59.736;30.568;2023-03-31T09:12:49;5.73;78.67
71128;SHT30;59249;59.736;30.568;2023-03-31T09:15:27;5.67;78.64
71128;SHT30;59249;59.736;30.568;2023-03-31T09:18:04;5.81;79.71
71128;SHT30;59249;59.736;30.568;2023-03-31T09:20:39;5.79;80.65
71128;SHT30;59249;59.736;30.568;2023-03-31T09:23:23;6.03;80.77
71128;SHT30;59249;59.736;30.568;2023-03-31T09:25:57;6.19;78.92
71128;SHT30;59249;59.736;30.568;2023-03-31T09:28:32;6.45;80.27
71128;SHT30;59249;59.736;30.568;2023-03-31T09:31:11;6.61;77.67
71128;SHT30;59249;59.736;30.568;2023-03-31T09:33:45;6.86;78.52
71128;SHT30;59249;59.736;30.568;2023-03-31T09:36:16;6.78;79.69
71128;SHT30;59249;59.736;30.568;2023-03-31T09:38:46;7.22;78.64
71128;SHT30;59249;59.736;30.568;2023-03-31T09:41:17;7.43;80.63
71128;SHT30;59249;59.736;30.568;2023-03-31T09:43:47;7.60;77.25
71128;SHT30;59249;59.736;30.568;2023-03-31T09:46:27;7.70;77.28
71128;SHT30;59249;59.736;30.568;2023-03-31T09:49:03;7.53;77.96
71128;SHT30;59249;59.736;30.568;2023-03-31T09:51:36;7.42;78.02
71128;SHT30;59249;59.736;30.568;2023-03-31T09:54:18;7.56;77.27
71128;SHT30;59249;59.736;30.568;2023-03-31T09:56:50;7.70;73.69
71128;SHT30;59249;59.736;30.568;2023-03-31T09:59:22;7.53;75.46
71128;SHT30;59249;59.736;30.568;2023-03-31T10:01:57;7.53;77.16
71128;SHT30;59249;59.736;30.568;2023-03-31T10:04:29;7.70;76.69
71128;SHT30;59249;59.736;30.568;2023-03-31T10:07:02;7.96;73.02
71128;SHT30;59249;59.736;30.568;2023-03-31T10:09:33;7.91;76.43
71128;SHT30;59249;59.736;30.568;2023-03-31T10:12:15;7.89;76.34
71128;SHT30;59249;59.736;30.568;2023-03-31T10:14:49;7.75;75.23
71128;SHT30;59249;59.736;30.568;2023-03-31T10:17:21;7.93;75.22
71128;SHT30;59249;59.736;30.568;2023-03-31T10:19:52;7.90;75.72
71128;SHT30;59249;59.736;30.568;2023-03-31T10:22:30;7.96;77.66
71128;SHT30;59249;59.736;30.568;2023-03-31T10:25:14;8.17;77.56
71128;SHT30;59249;59.736;30.568;2023-03-31T10:27:47;8.40;77.71
71128;SHT30;59249;59.736;30.568;2023-03-31T10:30:22;8.52;76.66
71128;SHT30;59249;59.736;30.568;2023-03-31T10:32:51;8.31;74.22
71128;SHT30;59249;59.736;30.568;2023-03-31T10:35:25;8.20;76.60
71128;SHT30;59249;59.736;30.568;2023-03-31T10:37:57;8.07;76.27
71128;SHT30;59249;59.736;30.568;2023-03-31T10:40:28;8.14;77.54
71128;SHT30;59249;59.736;30.568;2023-03-31T10:43:05;8.19;74.23
71128;SHT30;59249;59.736;30.568;2023-03-31T10:45:43;7.94;72.97
71128;SHT30;59249;59.736;30.568;2023-03-31T10:51:48;7.40;76.11
71128;SHT30;59249;59.736;30.568;2023-03-31T10:54:17;7.46;73.45
71128;SHT30;59249;59.736;30.568;2023-03-31T10:56:50;7.28;74.07
71128;SHT30;59249;59.736;30.568;2023-03-31T10:59:41;7.16;72.07
71128;SHT30;59249;59.736;30.568;2023-03-31T11:05:38;6.70;74.89
71128;SHT30;59249;59.736;30.568;2023-03-31T11:08:32;6.72;76.03
71128;SHT30;59249;59.736;30.568;2023-03-31T11:11:25;6.96;75.77
71128;SHT30;59249;59.736;30.568;2023-03-31T11:14:04;6.79;74.42
71128;SHT30;59249;59.736;30.568;2023-03-31T11:16:44;7.01;77.78
71128;SHT30;59249;59.736;30.568;2023-03-31T11:19:33;7.09;76.26
71128;SHT30;59249;59.736;30.568;2023-03-31T11:22:11;7.18;77.38
71128;SHT30;59249;59.736;30.568;2023-03-31T11:25:09;7.12;75.22
71128;SHT30;59249;59.736;30.568;2023-03-31T11:28:20;7.31;74.64
71128;SHT30;59249;59.736;30.568;2023-03-31T11:30:59;7.21;74.18
71128;SHT30;59249;59.736;30.568;2023-03-31T11:33:52;7.54;72.65
71128;SHT30;59249;59.736;30.568;2023-03-31T11:36:53;7.22;74.61
71128;SHT30;59249;59.736;30.568;2023-03-31T11:39:42;7.59;79.35
71128;SHT30;59249;59.736;30.568;2023-03-31T11:42:19;7.68;75.20
71128;SHT30;59249;59.736;30.568;2023-03-31T11:44:56;7.83;74.35
71128;SHT30;59249;59.736;30.568;2023-03-31T11:47:33;7.77;72.12
71128;SHT30;59249;59.736;30.568;2023-03-31T11:50:11;7.56;74.66
71128;SHT30;59249;59.736;30.568;2023-03-31T11:52:50;7.40;73.01
71128;SHT30;59249;59.736;30.568;2023-03-31T11:55:27;7.41;73.58
71128;SHT30;59249;59.736;30.568;2023-03-31T11:58:04;7.40;75.86
71128;SHT30;59249;59.736;30.568;2023-03-31T12:00:39;7.59;74.38
71128;SHT30;59249;59.736;30.568;2023-03-31T12:03:14;7.54;75.46
71128;SHT30;59249;59.736;30.568;2023-03-31T12:05:49;7.31;76.83
71128;SHT30;59249;59.736;30.568;2023-03-31T12:08:29;7.16;77.82
71128;SHT30;59249;59.736;30.568;2023-03-31T12:11:06;7.07;77.03
71128;SHT30;59249;59.736;30.568;2023-03-31T12:13:44;7.16;75.44
71128;SHT30;59249;59.736;30.568;2023-03-31T12:16:22;7.06;76.96
71128;SHT30;59249;59.736;30.568;2023-03-31T12:19:03;6.91;78.99
71128;SHT30;59249;59.736;30.568;2023-03-31T12:21:40;7.05;79.78
71128;SHT30;59249;59.736;30.568;2023-03-31T12:24:11;7.19;77.90
71128;SHT30;59249;59.736;30.568;2023-03-31T12:26:50;7.28;77.90
71128;SHT30;59249;59.736;30.568;2023-03-31T12:29:30;7.31;78.69
71128;SHT30;59249;59.736;30.568;2023-03-31T12:32:08;7.33;75.72
71128;SHT30;59249;59.736;30.568;2023-03-31T12:34:45;7.40;75.61
71128;SHT30;59249;59.736;30.568;2023-03-31T12:38:03;7.38;77.10
71128;SHT30;59249;59.736;30.568;2023-03-31T12:40:48;7.54;78.99
71128;SHT30;59249;59.736;30.568;2023-03-31T12:50:31;7.89;77.13
71128;SHT30;59249;59.736;30.568;2023-03-31T12:53:18;7.85;77.17
71128;SHT30;59249;59.736;30.568;2023-03-31T12:55:54;7.70;77.19
71128;SHT30;59249;59.736;30.568;2023-03-31T12:58:44;7.62;75.18
71128;SHT30;59249;59.736;30.568;2023-03-31T13:01:19;7.63;78.38
71128;SHT30;59249;59.736;30.568;2023-03-31T13:04:16;7.68;73.79
71128;SHT30;59249;59.736;30.568;2023-03-31T13:06:53;7.61;75.91
71128;SHT30;59249;59.736;30.568;2023-03-31T13:09:47;7.66;74.12
71128;SHT30;59249;59.736;30.568;2023-03-31T13:12:22;7.51;73.88
71128;SHT30;59249;59.736;30.568;2023-03-31T13:14:54;7.19;76.61
71128;SHT30;59249;59.736;30.568;2023-03-31T13:17:33;7.25;74.64
71128;SHT30;59249;59.736;30.568;2023-03-31T13:20:32;7.13;77.95
71128;SHT30;59249;59.736;30.568;2023-03-31T13:23:14;7.12;78.87
71128;SHT30;59249;59.736;30.568;2023-03-31T13:25:49;6.99;78.38
71128;SHT30;59249;59.736;30.568;2023-03-31T13:28:31;6.96;78.37
71128;SHT30;59249;59.736;30.568;2023-03-31T13:31:05;7.03;77.26
71128;SHT30;59249;59.736;30.568;2023-03-31T13:33:46;6.91;77.51
71128;SHT30;59249;59.736;30.568;2023-03-31T13:37:08;6.93;77.00
71128;SHT30;59249;59.736;30.568;2023-03-31T13:39:59;6.94;77.50
71128;SHT30;59249;59.736;30.568;2023-03-31T13:43:03;6.81;77.23
71128;SHT30;59249;59.736;30.568;2023-03-31T13:45:49;7.06;74.60
71128;SHT30;59249;59.736;30.568;2023-03-31T13:48:50;6.82;74.48
71128;SHT30;59249;59.736;30.568;2023-03-31T13:56:00;6.45;77.33
71128;SHT30;59249;59.736;30.568;2023-03-31T13:58:52;6.35;77.69
71128;SHT30;59249;59.736;30.568;2023-03-31T14:07:59;5.83;78.16
71128;SHT30;59249;59.736;30.568;2023-03-31T14:10:36;5.92;77.01
71128;SHT30;59249;59.736;30.568;2023-03-31T14:13:12;5.80;77.47
71128;SHT30;59249;59.736;30.568;2023-03-31T14:15:49;5.53;78.74
71128;SHT30;59249;59.736;30.568;2023-03-31T14:18:26;5.43;79.91
71128;SHT30;59249;59.736;30.568;2023-03-31T14:21:15;5.21;79.39
71128;SHT30;59249;59.736;30.568;2023-03-31T14:24:02;5.23;80.39
71128;SHT30;59249;59.736;30.568;2023-03-31T14:26:49;5.10;79.53
71128;SHT30;59249;59.736;30.568;2023-03-31T14:29:32;5.17;78.72
71128;SHT30;59249;59.736;30.568;2023-03-31T14:32:17;5.03;79.85
71128;SHT30;59249;59.736;30.568;2023-03-31T14:35:37;5.00;79.60
71128;SHT30;59249;59.736;30.568;2023-03-31T14:38:15;4.95;79.37
71128;SHT30;59249;59.736;30.568;2023-03-31T14:40:47;4.91;80.49
71128;SHT30;59249;59.736;30.568;2023-03-31T14:43:22;4.85;80.83
71128;SHT30;59249;59.736;30.568;2023-03-31T14:45:59;4.86;80.06
71128;SHT30;59249;59.736;30.568;2023-03-31T14:48:43;4.91;80.08
71128;SHT30;59249;59.736;30.568;2023-03-31T14:51:16;4.73;79.63
71128;SHT30;59249;59.736;30.568;2023-03-31T14:53:45;4.68;79.43
71128;SHT30;59249;59.736;30.568;2023-03-31T14:56:19;4.67;79.48
71128;SHT30;59249;59.736;30.568;2023-03-31T14:58:52;4.54;79.64
71128;SHT30;59249;59.736;30.568;2023-03-31T15:01:31;4.30;80.39
71128;SHT30;59249;59.736;30.568;2023-03-31T15:04:07;4.31;79.81
71128;SHT30;59249;59.736;30.568;2023-03-31T15:06:40;4.08;80.40
71128;SHT30;59249;59.736;30.568;2023-03-31T15:09:17;4.21;80.06
71128;SHT30;59249;59.736;30.568;2023-03-31T15:11:55;3.99;81.14
71128;SHT30;59249;59.736;30.568;2023-03-31T15:14:29;4.02;81.77
71128;SHT30;59249;59.736;30.568;2023-03-31T15:17:00;4.05;81.91
71128;SHT30;59249;59.736;30.568;2023-03-31T15:19:34;4.09;82.27
71128;SHT30;59249;59.736;30.568;2023-03-31T15:22:11;3.86;82.57
71128;SHT30;59249;59.736;30.568;2023-03-31T15:24:45;3.99;81.95
71128;SHT30;59249;59.736;30.568;2023-03-31T15:27:28;3.83;82.54
71128;SHT30;59249;59.736;30.568;2023-03-31T15:30:12;3.98;81.92
71128;SHT30;59249;59.736;30.568;2023-03-31T15:32:43;3.86;81.60
71128;SHT30;59249;59.736;30.568;2023-03-31T15:35:21;3.72;82.36
71128;SHT30;59249;59.736;30.568;2023-03-31T15:37:55;3.61;82.42
71128;SHT30;59249;59.736;30.568;2023-03-31T15:40:34;3.62;82.48
71128;SHT30;59249;59.736;30.568;2023-03-31T15:43:14;3.55;82.58
71128;SHT30;59249;59.736;30.568;2023-03-31T15:45:56;3.44;82.87
71128;SHT30;59249;59.736;30.568;2023-03-31T15:48:33;3.41;83.09
71128;SHT30;59249;59.736;30.568;2023-03-31T15:51:22;3.38;83.54
71128;SHT30;59249;59.736;30.568;2023-03-31T15:53:57;3.41;83.65
71128;SHT30;59249;59.736;30.568;2023-03-31T15:59:57;3.40;83.48
71128;SHT30;59249;59.736;30.568;2023-03-31T16:02:44;3.37;83.23
71128;SHT30;59249;59.736;30.568;2023-03-31T16:05:36;3.28;82.91
71128;SHT30;59249;59.736;30.568;2023-03-31T16:08:40;3.13;83.65
71128;SHT30;59249;59.736;30.568;2023-03-31T16:11:24;3.13;83.77
71128;SHT30;59249;59.736;30.568;2023-03-31T16:14:12;2.86;84.39
71128;SHT30;59249;59.736;30.568;2023-03-31T16:16:51;2.90;84.31
71128;SHT30;59249;59.736;30.568;2023-03-31T16:19:28;2.84;84.41
71128;SHT30;59249;59.736;30.568;2023-03-31T16:22:12;2.74;84.86
71128;SHT30;59249;59.736;30.568;2023-03-31T16:24:46;2.69;85.44
71128;SHT30;59249;59.736;30.568;2023-03-31T16:27:25;2.81;84.93
71128;SHT30;59249;59.736;30.568;2023-03-31T16:30:12;2.76;84.98
71128;SHT30;59249;59.736;30.568;2023-03-31T16:33:02;2.62;85.01
71128;SHT30;59249;59.736;30.568;2023-03-31T16:35:33;2.72;85.08
71128;SHT30;59249;59.736;30.568;2023-03-31T16:38:08;2.69;84.76
71128;SHT30;59249;59.736;30.568;2023-03-31T16:40:44;2.65;85.15
71128;SHT30;59249;59.736;30.568;2023-03-31T16:43:23;2.47;85.49
71128;SHT30;59249;59.736;30.568;2023-03-31T16:45:58;2.65;85.42
71128;SHT30;59249;59.736;30.568;2023-03-31T16:48:33;2.56;85.45
71128;SHT30;59249;59.736;30.568;2023-03-31T16:51:05;2.65;85.43
71128;SHT30;59249;59.736;30.568;2023-03-31T16:53:35;2.58;85.18
71128;SHT30;59249;59.736;30.568;2023-03-31T16:56:07;2.50;85.58
71128;SHT30;59249;59.736;30.568;2023-03-31T16:58:40;2.48;85.38
71128;SHT30;59249;59.736;30.568;2023-03-31T17:01:12;2.48;85.38
71128;SHT30;59249;59.736;30.568;2023-03-31T17:03:42;2.37;85.69